createdAt,value
2019-01-15T00:01:11.325Z,5.30
2019-01-15T00:03:40.802Z,4.77
2019-01-15T00:06:10.238Z,5.33
2019-01-15T00:08:39.673Z,3.87
2019-01-15T00:11:09.157Z,4.47
2019-01-15T00:13:38.976Z,5.90
2019-01-15T00:16:08.437Z,3.83
2019-01-15T00:18:37.918Z,2.57
2019-01-15T00:21:07.383Z,4.37
2019-01-15T00:23:36.860Z,8.73
2019-01-15T00:26:06.380Z,5.47
2019-01-15T00:28:35.930Z,3.30
2019-01-15T00:31:05.425Z,5.17
2019-01-15T00:33:34.960Z,3.93
2019-01-15T00:36:04.625Z,3.33
2019-01-15T00:38:34.077Z,2.30
2019-01-15T00:41:03.525Z,2.83
2019-01-15T00:43:32.994Z,4.27
2019-01-15T00:46:02.457Z,3.20
2019-01-15T00:48:31.886Z,2.50
2019-01-15T00:51:01.361Z,3.70
2019-01-15T00:53:30.836Z,5.80
2019-01-15T00:56:00.361Z,3.13
2019-01-15T00:58:29.867Z,2.47
2019-01-15T01:00:59.373Z,3.37
2019-01-15T01:03:28.891Z,3.20
2019-01-15T01:05:58.388Z,2.80
2019-01-15T01:08:27.845Z,2.53
2019-01-15T01:10:57.313Z,2.37
2019-01-15T01:13:26.771Z,1.53
2019-01-15T01:15:56.236Z,4.77
2019-01-15T01:18:25.719Z,3.27
2019-01-15T01:20:55.183Z,2.80
2019-01-15T01:23:24.651Z,3.40
2019-01-15T01:25:54.135Z,2.17
2019-01-15T01:28:23.608Z,2.03
2019-01-15T01:30:53.035Z,3.00
2019-01-15T01:33:22.497Z,3.60
2019-01-15T01:35:52.033Z,1.53
2019-01-15T01:38:21.532Z,4.33
2019-01-15T01:40:51.053Z,3.73
2019-01-15T01:43:20.564Z,2.27
2019-01-15T01:45:50.166Z,3.27
2019-01-15T01:48:19.683Z,2.33
2019-01-15T01:50:49.213Z,1.87
2019-01-15T01:53:18.723Z,1.60
2019-01-15T01:55:48.248Z,2.37
2019-01-15T01:58:17.750Z,4.50
2019-01-15T02:00:47.255Z,3.03
2019-01-15T02:03:18.610Z,2.93
2019-01-15T02:05:48.066Z,3.87
2019-01-15T02:08:17.541Z,2.83
2019-01-15T02:10:47.020Z,3.00
2019-01-15T02:13:16.495Z,3.30
2019-01-15T02:15:45.980Z,3.63
2019-01-15T02:18:15.443Z,3.20
2019-01-15T02:20:44.936Z,3.67
2019-01-15T02:23:14.418Z,2.97
2019-01-15T02:25:43.936Z,1.97
2019-01-15T02:28:13.439Z,3.00
2019-01-15T02:30:42.926Z,2.77
2019-01-15T02:33:12.401Z,3.03
2019-01-15T02:35:43.678Z,1.60
2019-01-15T02:38:13.130Z,3.70
2019-01-15T02:40:42.631Z,4.13
2019-01-15T02:43:12.122Z,2.87
2019-01-15T02:45:41.592Z,3.63
2019-01-15T02:48:11.114Z,5.27
2019-01-15T02:50:40.616Z,3.17
2019-01-15T02:53:10.098Z,4.00
2019-01-15T02:55:39.579Z,3.17
2019-01-15T02:58:09.094Z,4.53
2019-01-15T03:00:38.592Z,3.43
2019-01-15T03:03:08.094Z,2.97
2019-01-15T03:05:37.612Z,2.80
2019-01-15T03:08:07.075Z,2.03
2019-01-15T03:10:36.550Z,4.17
2019-01-15T03:13:06.127Z,2.47
2019-01-15T03:15:35.624Z,2.93
2019-01-15T03:18:05.124Z,5.60
2019-01-15T03:20:34.580Z,4.27
2019-01-15T03:23:05.097Z,3.43
2019-01-15T03:25:34.576Z,2.23
2019-01-15T03:28:04.074Z,2.40
2019-01-15T03:30:34.585Z,5.17
2019-01-15T03:33:04.121Z,3.47
2019-01-15T03:35:33.579Z,5.50
2019-01-15T03:38:03.064Z,3.77
2019-01-15T03:40:34.575Z,3.80
2019-01-15T03:43:04.337Z,2.30
2019-01-15T03:45:33.943Z,3.30
2019-01-15T03:48:03.389Z,4.10
2019-01-15T03:50:32.873Z,4.70
2019-01-15T03:53:02.338Z,1.90
2019-01-15T03:55:31.877Z,5.27
2019-01-15T03:58:01.391Z,3.27
2019-01-15T04:00:31.079Z,3.03
2019-01-15T04:03:00.556Z,5.10
2019-01-15T04:05:30.107Z,2.00
2019-01-15T04:08:00.689Z,2.00
2019-01-15T04:10:30.348Z,2.47
2019-01-15T04:13:01.063Z,4.13
2019-01-15T04:15:30.537Z,3.87
2019-01-15T04:18:00.019Z,2.33
2019-01-15T04:20:29.493Z,3.10
2019-01-15T04:22:58.933Z,4.10
2019-01-15T04:25:28.454Z,5.40
2019-01-15T04:27:57.962Z,6.07
2019-01-15T04:30:27.544Z,4.30
2019-01-15T04:32:57.036Z,5.60
2019-01-15T04:35:26.534Z,5.23
2019-01-15T04:37:56.070Z,11.23
2019-01-15T04:40:25.543Z,4.13
2019-01-15T04:42:55.014Z,3.20
2019-01-15T04:45:25.084Z,3.30
2019-01-15T04:47:54.703Z,5.10
2019-01-15T04:50:24.179Z,4.33
2019-01-15T04:52:57.533Z,3.87
2019-01-15T04:55:27.149Z,6.03
2019-01-15T04:57:56.677Z,5.40
2019-01-15T05:00:26.177Z,4.20
2019-01-15T05:02:58.308Z,3.70
2019-01-15T05:05:27.816Z,4.30
2019-01-15T05:07:57.292Z,4.57
2019-01-15T05:10:26.753Z,5.00
2019-01-15T05:12:56.241Z,5.77
2019-01-15T05:15:25.688Z,5.87
2019-01-15T05:17:55.162Z,6.67
2019-01-15T05:20:24.671Z,5.77
2019-01-15T05:22:54.181Z,4.77
2019-01-15T05:25:23.679Z,5.00
2019-01-15T05:27:53.261Z,5.20
2019-01-15T05:30:41.022Z,10.67
2019-01-15T05:33:10.518Z,5.50
2019-01-15T05:35:40.022Z,5.37
2019-01-15T05:38:09.560Z,4.47
2019-01-15T05:40:39.051Z,6.30
2019-01-15T05:43:08.517Z,5.33
2019-01-15T05:45:39.593Z,3.40
2019-01-15T05:48:12.335Z,7.30
2019-01-15T05:51:03.763Z,8.53
2019-01-15T05:53:33.255Z,6.87
2019-01-15T05:56:02.757Z,7.13
2019-01-15T05:58:32.263Z,7.40
2019-01-15T06:01:01.705Z,5.23
2019-01-15T06:03:31.171Z,6.93
2019-01-15T06:06:00.667Z,5.63
2019-01-15T06:08:30.193Z,6.60
2019-01-15T06:10:59.711Z,7.17
2019-01-15T06:13:29.181Z,6.90
2019-01-15T06:15:58.679Z,6.27
2019-01-15T06:18:28.152Z,9.20
2019-01-15T06:20:57.633Z,7.87
2019-01-15T06:23:27.181Z,6.13
2019-01-15T06:25:56.699Z,5.27
2019-01-15T06:28:26.907Z,4.63
2019-01-15T06:30:56.498Z,7.20
2019-01-15T06:33:26.005Z,7.57
2019-01-15T06:35:55.527Z,7.93
2019-01-15T06:38:25.106Z,11.30
2019-01-15T06:40:54.656Z,9.37
2019-01-15T06:43:24.145Z,6.70
2019-01-15T06:45:53.633Z,7.40
2019-01-15T06:48:23.114Z,5.30
2019-01-15T06:50:52.600Z,6.30
2019-01-15T06:53:22.037Z,7.27
2019-01-15T06:55:51.519Z,7.30
2019-01-15T06:58:21.039Z,7.80
2019-01-15T07:00:50.611Z,7.20
2019-01-15T07:03:20.070Z,6.43
2019-01-15T07:05:53.867Z,10.87
2019-01-15T07:08:23.282Z,6.17
2019-01-15T07:10:53.089Z,6.63
2019-01-15T07:13:22.935Z,8.63
2019-01-15T07:15:56.162Z,10.57
2019-01-15T07:18:25.699Z,6.83
2019-01-15T07:20:55.230Z,4.97
2019-01-15T07:23:24.803Z,6.13
2019-01-15T07:25:54.300Z,6.77
2019-01-15T07:28:23.837Z,9.03
2019-01-15T07:30:55.763Z,8.23
2019-01-15T07:33:27.101Z,8.20
2019-01-15T07:35:56.583Z,6.77
2019-01-15T07:38:26.042Z,7.47
2019-01-15T07:40:55.585Z,6.47
2019-01-15T07:43:25.036Z,9.60
2019-01-15T07:45:54.536Z,10.10
2019-01-15T07:48:24.044Z,10.73
2019-01-15T07:50:53.570Z,10.00
2019-01-15T07:53:23.049Z,10.70
2019-01-15T07:55:52.806Z,7.70
2019-01-15T07:58:22.472Z,8.40
2019-01-15T08:00:51.973Z,5.57
2019-01-15T08:03:21.490Z,5.77
2019-01-15T08:05:50.983Z,8.17
2019-01-15T08:08:20.493Z,4.73
2019-01-15T08:10:56.744Z,5.03
2019-01-15T08:13:21.238Z,4.40
2019-01-15T08:15:50.677Z,6.63
2019-01-15T08:18:20.200Z,8.90
2019-01-15T08:20:49.744Z,6.20
2019-01-15T08:23:19.268Z,7.40
2019-01-15T08:25:48.796Z,7.73
2019-01-15T08:28:19.233Z,7.17
2019-01-15T08:30:48.805Z,6.87
2019-01-15T08:33:18.312Z,6.77
2019-01-15T08:35:47.789Z,7.63
2019-01-15T08:38:17.229Z,7.57
2019-01-15T08:40:46.734Z,6.57
2019-01-15T08:43:16.173Z,7.10
2019-01-15T08:45:45.657Z,5.87
2019-01-15T08:48:23.686Z,8.10
2019-01-15T08:50:54.199Z,5.10
2019-01-15T08:53:24.427Z,5.47
2019-01-15T08:55:57.494Z,12.40
2019-01-15T08:58:27.069Z,9.20
2019-01-15T09:00:56.583Z,9.47
2019-01-15T09:03:26.117Z,7.20
2019-01-15T09:05:55.605Z,7.47
2019-01-15T09:08:25.240Z,5.70
2019-01-15T09:10:54.835Z,11.03
2019-01-15T09:13:26.128Z,6.57
2019-01-15T09:15:57.350Z,8.13
2019-01-15T09:18:26.940Z,6.03
2019-01-15T09:20:56.472Z,8.37
2019-01-15T09:23:28.076Z,4.27
2019-01-15T09:25:57.698Z,4.67
2019-01-15T09:28:27.726Z,6.27
2019-01-15T09:30:57.317Z,5.33
2019-01-15T09:33:27.220Z,4.60
2019-01-15T09:35:56.805Z,5.77
2019-01-15T09:38:26.462Z,5.97
2019-01-15T09:40:56.261Z,3.80
2019-01-15T09:43:25.956Z,3.77
2019-01-15T09:45:55.764Z,7.00
2019-01-15T09:48:34.352Z,4.07
2019-01-15T09:51:03.894Z,5.80
2019-01-15T09:53:33.595Z,4.30
2019-01-15T09:56:03.686Z,4.33
2019-01-15T09:58:33.476Z,4.97
2019-01-15T10:01:03.192Z,4.67
2019-01-15T10:03:32.929Z,5.10
2019-01-15T10:06:05.355Z,8.57
2019-01-15T10:08:36.236Z,5.93
2019-01-15T10:11:05.899Z,5.63
2019-01-15T10:13:35.484Z,7.10
2019-01-15T10:16:04.984Z,4.77
2019-01-15T10:18:34.597Z,5.93
2019-01-15T10:21:04.166Z,5.60
2019-01-15T10:23:34.012Z,4.53
2019-01-15T10:26:03.650Z,5.20
2019-01-15T10:28:33.319Z,4.40
2019-01-15T10:31:29.644Z,6.87
2019-01-15T10:34:07.292Z,7.13
2019-01-15T10:36:35.205Z,7.47
2019-01-15T10:39:08.090Z,8.63
2019-01-15T10:41:37.719Z,4.87
2019-01-15T10:44:07.269Z,6.50
2019-01-15T10:46:36.884Z,6.50
2019-01-15T10:49:06.532Z,8.70
2019-01-15T10:51:36.102Z,5.23
2019-01-15T10:54:06.000Z,5.77
2019-01-15T10:56:35.571Z,6.63
2019-01-15T10:59:05.135Z,4.90
2019-01-15T11:01:34.657Z,5.03
2019-01-15T11:04:04.458Z,3.77
2019-01-15T11:06:34.301Z,9.10
2019-01-15T11:09:07.004Z,7.97
2019-01-15T11:11:41.157Z,5.80
2019-01-15T11:14:14.832Z,8.20
2019-01-15T11:16:45.327Z,3.57
2019-01-15T11:19:20.260Z,7.50
2019-01-15T11:21:55.784Z,4.87
2019-01-15T11:24:30.860Z,4.70
2019-01-15T11:27:04.850Z,3.23
2019-01-15T11:29:34.279Z,4.03
2019-01-15T11:32:03.779Z,5.40
2019-01-15T11:34:33.417Z,7.00
2019-01-15T11:37:03.079Z,9.80
2019-01-15T11:39:32.560Z,6.57
2019-01-15T11:42:02.047Z,3.93
2019-01-15T11:44:31.559Z,7.70
2019-01-15T11:47:01.094Z,7.53
2019-01-15T11:49:30.644Z,4.90
2019-01-15T11:52:00.170Z,5.33
2019-01-15T11:54:29.718Z,4.43
2019-01-15T11:56:59.258Z,6.67
2019-01-15T11:59:29.258Z,5.00
2019-01-15T12:02:25.282Z,5.00
2019-01-15T12:05:09.787Z,4.50
2019-01-15T12:08:01.367Z,6.53
2019-01-15T12:10:48.782Z,6.30
2019-01-15T12:13:37.149Z,7.37
2019-01-15T12:16:18.862Z,6.40
2019-01-15T12:19:09.911Z,6.17
2019-01-15T12:22:01.540Z,3.77
2019-01-15T12:24:56.221Z,3.77
2019-01-15T12:27:47.741Z,6.97
2019-01-15T12:30:34.958Z,10.67
2019-01-15T12:33:22.245Z,7.77
2019-01-15T12:36:13.476Z,6.63
2019-01-15T12:39:01.938Z,4.13
2019-01-15T12:41:49.663Z,4.83
2019-01-15T12:44:50.345Z,6.57
2019-01-15T12:47:37.381Z,7.03
2019-01-15T12:50:26.443Z,6.90
2019-01-15T12:53:14.399Z,7.83
2019-01-15T12:56:04.838Z,6.63
2019-01-15T12:58:46.901Z,4.57
2019-01-15T13:01:34.002Z,6.17
2019-01-15T13:04:16.918Z,8.10
2019-01-15T13:07:17.499Z,6.77
2019-01-15T13:10:04.811Z,5.80
2019-01-15T13:13:11.748Z,4.70
2019-01-15T13:16:00.236Z,6.53
2019-01-15T13:18:53.631Z,9.43
2019-01-15T13:21:36.371Z,4.40
2019-01-15T13:24:32.241Z,5.47
2019-01-15T13:27:20.690Z,6.80
2019-01-15T13:30:09.392Z,6.83
2019-01-15T13:32:52.073Z,6.27
2019-01-15T13:35:46.417Z,6.60
2019-01-15T13:38:44.099Z,5.53
2019-01-15T13:41:31.218Z,7.23
2019-01-15T13:44:22.678Z,7.97
2019-01-15T13:47:03.872Z,5.73
2019-01-15T13:50:10.627Z,7.87
2019-01-15T13:52:51.852Z,8.20
2019-01-15T13:55:39.219Z,8.20
2019-01-15T13:58:28.361Z,7.33
2019-01-15T14:01:29.124Z,8.03
2019-01-15T14:04:26.781Z,7.00
2019-01-15T14:07:06.420Z,8.63
2019-01-15T14:09:53.859Z,7.13
2019-01-15T14:12:42.225Z,7.57
2019-01-15T14:15:28.269Z,8.77
2019-01-15T14:18:10.299Z,4.17
2019-01-15T14:20:58.678Z,3.70
2019-01-15T14:23:49.932Z,6.07
2019-01-15T14:26:47.119Z,7.57
2019-01-15T14:29:35.805Z,4.53
2019-01-15T14:32:23.679Z,6.00
2019-01-15T14:35:11.118Z,7.77
2019-01-15T14:37:59.571Z,8.30
2019-01-15T14:40:46.620Z,9.30
2019-01-15T14:43:34.044Z,10.10
2019-01-15T14:46:21.598Z,10.57
2019-01-15T14:49:13.517Z,11.53
2019-01-15T14:52:11.386Z,9.07
2019-01-15T14:54:59.839Z,9.83
2019-01-15T14:57:47.270Z,8.47
2019-01-15T15:00:47.357Z,9.47
2019-01-15T15:03:35.890Z,14.23
2019-01-15T15:06:15.200Z,8.83
2019-01-15T15:08:56.866Z,10.37
2019-01-15T15:11:44.816Z,10.60
2019-01-15T15:14:33.348Z,9.70
2019-01-15T15:17:21.867Z,10.13
2019-01-15T15:20:16.649Z,9.27
2019-01-15T15:23:03.763Z,12.53
2019-01-15T15:25:40.432Z,12.87
2019-01-15T15:28:28.921Z,7.00
2019-01-15T15:31:16.101Z,9.53
2019-01-15T15:34:03.257Z,8.30
2019-01-15T15:36:50.675Z,7.47
2019-01-15T15:39:44.476Z,5.27
2019-01-15T15:42:36.242Z,5.10
2019-01-15T15:45:24.993Z,5.73
2019-01-15T15:48:06.358Z,6.73
2019-01-15T15:50:44.832Z,6.77
2019-01-15T15:53:45.497Z,9.03
2019-01-15T15:56:46.311Z,7.33
2019-01-15T15:59:34.455Z,6.40
2019-01-15T16:02:38.912Z,6.80
2019-01-15T16:05:38.187Z,8.17
2019-01-15T16:08:38.823Z,7.63
2019-01-15T16:11:26.535Z,14.23
2019-01-15T16:14:15.215Z,15.20
2019-01-15T16:17:15.972Z,17.07
2019-01-15T16:20:04.388Z,12.67
2019-01-15T16:22:43.321Z,9.83
2019-01-15T16:25:24.904Z,8.80
2019-01-15T16:28:12.224Z,10.50
2019-01-15T16:31:06.695Z,9.90
2019-01-15T16:33:53.985Z,10.13
2019-01-15T16:36:51.836Z,12.03
2019-01-15T16:39:46.285Z,10.07
2019-01-15T16:42:34.742Z,10.10
2019-01-15T16:45:18.781Z,8.90
2019-01-15T16:48:00.315Z,8.10
2019-01-15T16:51:01.396Z,6.63
2019-01-15T16:53:48.467Z,7.60
2019-01-15T16:56:34.755Z,7.73
2019-01-15T16:59:22.493Z,7.87
2019-01-15T17:02:17.208Z,7.47
2019-01-15T17:05:20.824Z,6.63
2019-01-15T17:08:08.105Z,9.20
2019-01-15T17:10:59.498Z,7.13
2019-01-15T17:13:53.922Z,9.23
2019-01-15T17:16:34.844Z,8.60
2019-01-15T17:19:26.776Z,9.27
2019-01-15T17:22:18.267Z,7.40
2019-01-15T17:25:05.656Z,6.53
2019-01-15T17:27:57.943Z,7.07
2019-01-15T17:30:52.223Z,9.57
2019-01-15T17:33:46.784Z,8.83
2019-01-15T17:36:42.191Z,6.27
2019-01-15T17:39:35.007Z,9.60
2019-01-15T17:42:26.117Z,8.67
2019-01-15T17:45:14.338Z,7.47
2019-01-15T17:48:06.146Z,7.17
2019-01-15T17:51:01.369Z,7.57
2019-01-15T17:53:55.982Z,7.97
2019-01-15T17:56:42.470Z,9.97
2019-01-15T17:59:36.972Z,6.53
2019-01-15T18:02:24.650Z,8.67
2019-01-15T18:05:17.798Z,7.47
2019-01-15T18:08:24.542Z,8.07
2019-01-15T18:11:15.859Z,8.17
2019-01-15T18:14:06.817Z,9.30
2019-01-15T18:16:49.652Z,9.00
2019-01-15T18:19:40.935Z,9.47
2019-01-15T18:22:19.499Z,10.80
2019-01-15T18:25:13.836Z,8.87
2019-01-15T18:28:11.660Z,9.63
2019-01-15T18:31:03.106Z,9.60
2019-01-15T18:33:50.187Z,14.00
2019-01-15T18:36:33.954Z,10.77
2019-01-15T18:39:28.658Z,11.03
2019-01-15T18:42:19.866Z,8.77
2019-01-15T18:45:04.608Z,8.93
2019-01-15T18:47:51.725Z,9.47
2019-01-15T18:50:40.133Z,5.87
2019-01-15T18:53:20.977Z,7.80
2019-01-15T18:56:18.603Z,6.13
2019-01-15T18:59:00.007Z,8.13
2019-01-15T19:01:47.364Z,6.10
2019-01-15T19:04:38.543Z,5.67
2019-01-15T19:07:42.452Z,4.90
2019-01-15T19:10:38.052Z,8.77
2019-01-15T19:13:25.323Z,6.03
2019-01-15T19:16:19.862Z,5.93
2019-01-15T19:19:20.303Z,6.80
2019-01-15T19:22:11.658Z,6.23
2019-01-15T19:25:13.257Z,5.53
2019-01-15T19:28:04.680Z,6.20
2019-01-15T19:31:08.530Z,8.67
2019-01-15T19:34:03.084Z,5.03
2019-01-15T19:36:54.734Z,5.80
2019-01-15T19:39:46.231Z,4.77
2019-01-15T19:42:37.721Z,3.53
2019-01-15T19:45:41.774Z,5.10
2019-01-15T19:48:30.262Z,5.80
2019-01-15T19:51:27.651Z,6.63
2019-01-15T19:54:39.124Z,5.10
2019-01-15T19:57:28.298Z,8.60
2019-01-15T20:00:16.100Z,7.00
2019-01-15T20:03:03.409Z,8.23
2019-01-15T20:05:51.918Z,6.23
2019-01-15T20:08:49.521Z,5.43
2019-01-15T20:11:30.726Z,8.37
2019-01-15T20:14:28.533Z,10.30
2019-01-15T20:17:18.468Z,6.53
2019-01-15T20:20:24.288Z,5.53
2019-01-15T20:23:15.221Z,5.47
2019-01-15T20:26:15.692Z,5.57
2019-01-15T20:29:02.872Z,6.43
2019-01-15T20:31:45.135Z,5.80
2019-01-15T20:34:33.573Z,5.87
2019-01-15T20:37:17.773Z,6.93
2019-01-15T20:40:04.870Z,5.70
2019-01-15T20:42:52.250Z,8.77
2019-01-15T20:45:39.575Z,8.10
2019-01-15T20:48:37.051Z,6.47
2019-01-15T20:51:44.029Z,7.03
2019-01-15T20:54:35.566Z,9.37
2019-01-15T20:57:20.090Z,7.50
2019-01-15T21:00:07.767Z,5.00
2019-01-15T21:02:57.145Z,7.47
2019-01-15T21:05:36.047Z,4.53
2019-01-15T21:08:30.706Z,3.27
2019-01-15T21:11:25.217Z,4.93
2019-01-15T21:14:12.509Z,7.27
2019-01-15T21:17:10.232Z,7.10
2019-01-15T21:19:55.580Z,4.83
2019-01-15T21:22:51.445Z,6.40
2019-01-15T21:25:43.323Z,3.80
2019-01-15T21:28:31.269Z,5.40
2019-01-15T21:31:15.943Z,7.20
2019-01-15T21:34:07.591Z,4.30
2019-01-15T21:36:55.070Z,5.07
2019-01-15T21:39:50.186Z,5.37
2019-01-15T21:42:33.347Z,6.03
2019-01-15T21:45:20.675Z,6.60
2019-01-15T21:48:07.057Z,3.80
2019-01-15T21:50:58.325Z,5.77
2019-01-15T21:53:49.520Z,4.43
2019-01-15T21:56:35.389Z,5.47
2019-01-15T21:59:26.728Z,6.40
2019-01-15T22:02:13.955Z,7.67
2019-01-15T22:05:07.887Z,6.70
2019-01-15T22:07:56.319Z,5.83
2019-01-15T22:10:47.703Z,5.67
2019-01-15T22:13:34.812Z,6.07
2019-01-15T22:16:29.266Z,7.60
2019-01-15T22:19:14.540Z,3.90
2019-01-15T22:22:21.199Z,3.90
2019-01-15T22:25:09.582Z,4.47
2019-01-15T22:28:04.007Z,4.77
2019-01-15T22:30:58.351Z,5.43
2019-01-15T22:33:46.767Z,5.13
2019-01-15T22:36:36.115Z,5.07
2019-01-15T22:39:34.825Z,5.17
2019-01-15T22:42:41.675Z,5.60
2019-01-15T22:45:28.976Z,4.70
2019-01-15T22:48:29.634Z,4.13
2019-01-15T22:51:18.046Z,4.13
2019-01-15T22:53:58.671Z,5.60
2019-01-15T22:56:45.252Z,3.57
2019-01-15T22:59:36.711Z,3.57
2019-01-15T23:02:25.135Z,3.57
2019-01-15T23:05:28.834Z,4.80
2019-01-15T23:08:15.641Z,4.50
2019-01-15T23:11:04.020Z,3.63
2019-01-15T23:13:58.443Z,3.63
2019-01-15T23:16:42.074Z,5.70
2019-01-15T23:19:35.615Z,4.57
2019-01-15T23:22:23.336Z,5.53
2019-01-15T23:25:14.719Z,5.30
2019-01-15T23:28:02.008Z,5.33
2019-01-15T23:30:56.430Z,4.40
2019-01-15T23:33:43.440Z,4.83
2019-01-15T23:36:37.970Z,4.97
2019-01-15T23:39:25.074Z,4.37
2019-01-15T23:42:13.652Z,6.87
2019-01-15T23:45:04.800Z,4.47
2019-01-15T23:47:56.353Z,3.10
2019-01-15T23:50:47.794Z,4.20
2019-01-15T23:53:31.757Z,4.20
2019-01-15T23:56:38.691Z,5.13
2019-01-15T23:59:25.569Z,5.83
